createdAt,value
2023-05-01T00:02:13.333Z,11.66
2023-05-01T00:04:39.660Z,11.55
2023-05-01T00:07:06.047Z,11.43
2023-05-01T00:09:32.561Z,11.40
2023-05-01T00:11:59.027Z,11.33
2023-05-01T00:14:25.391Z,11.30
2023-05-01T00:16:51.907Z,11.23
2023-05-01T00:19:18.291Z,11.18
2023-05-01T00:21:44.802Z,11.12
2023-05-01T00:24:11.377Z,11.10
2023-05-01T00:26:37.838Z,11.07
2023-05-01T00:29:04.226Z,11.04
2023-05-01T00:31:30.690Z,11.03
2023-05-01T00:33:57.098Z,11.08
2023-05-01T00:36:23.536Z,10.97
2023-05-01T00:38:50.044Z,10.84
2023-05-01T00:41:16.517Z,10.80
2023-05-01T00:43:42.909Z,10.80
2023-05-01T00:46:09.433Z,10.74
2023-05-01T00:48:35.842Z,10.67
2023-05-01T00:51:02.364Z,10.61
2023-05-01T00:53:28.895Z,10.57
2023-05-01T00:55:55.329Z,10.55
2023-05-01T00:58:21.712Z,10.51
2023-05-01T01:00:48.243Z,10.48
2023-05-01T01:03:14.707Z,10.46
2023-05-01T01:05:41.110Z,10.45
2023-05-01T01:08:07.662Z,10.43
2023-05-01T01:10:34.087Z,10.40
2023-05-01T01:13:00.490Z,10.30
2023-05-01T01:15:27.049Z,10.29
2023-05-01T01:17:53.719Z,10.24
2023-05-01T01:20:20.131Z,10.23
2023-05-01T01:22:46.588Z,10.15
2023-05-01T01:25:13.009Z,10.15
2023-05-01T01:27:39.504Z,10.20
2023-05-01T01:30:05.890Z,10.22
2023-05-01T01:32:32.484Z,10.19
2023-05-01T01:34:58.898Z,10.21
2023-05-01T01:37:25.311Z,10.27
2023-05-01T01:39:52.869Z,10.30
2023-05-01T01:42:19.269Z,10.33
2023-05-01T01:44:45.733Z,10.33
2023-05-01T01:47:12.225Z,10.37
2023-05-01T01:49:38.658Z,10.41
2023-05-01T01:52:05.136Z,10.36
2023-05-01T01:54:31.598Z,10.28
2023-05-01T01:56:58.072Z,10.29
2023-05-01T01:59:24.486Z,10.31
2023-05-01T02:01:50.992Z,10.30
2023-05-01T02:04:17.430Z,10.24
2023-05-01T02:06:43.974Z,10.11
2023-05-01T02:09:10.412Z,9.97
2023-05-01T02:11:36.744Z,9.88
2023-05-01T02:14:03.154Z,9.86
2023-05-01T02:16:29.626Z,9.83
2023-05-01T02:18:55.990Z,9.81
2023-05-01T02:21:22.454Z,9.74
2023-05-01T02:23:48.956Z,9.63
2023-05-01T02:26:15.436Z,9.55
2023-05-01T02:28:41.847Z,9.59
2023-05-01T02:31:08.444Z,9.57
2023-05-01T02:33:34.819Z,9.56
2023-05-01T02:36:01.280Z,9.52
2023-05-01T02:38:27.750Z,9.50
2023-05-01T02:40:54.270Z,9.51
2023-05-01T02:43:20.728Z,9.47
2023-05-01T02:45:47.257Z,9.50
2023-05-01T02:48:15.988Z,9.53
2023-05-01T02:50:40.040Z,9.43
2023-05-01T02:53:06.484Z,9.35
2023-05-01T02:55:33.293Z,9.32
2023-05-01T02:57:59.753Z,9.31
2023-05-01T03:00:26.338Z,9.40
2023-05-01T03:02:52.836Z,9.41
2023-05-01T03:05:19.254Z,9.37
2023-05-01T03:07:45.716Z,9.40
2023-05-01T03:10:12.126Z,9.38
2023-05-01T03:12:38.604Z,9.48
2023-05-01T03:15:05.180Z,9.54
2023-05-01T03:17:31.812Z,9.45
2023-05-01T03:19:58.318Z,9.42
2023-05-01T03:22:24.683Z,9.31
2023-05-01T03:24:51.081Z,9.23
2023-05-01T03:27:17.608Z,9.14
2023-05-01T03:29:45.894Z,9.10
2023-05-01T03:32:10.528Z,9.05
2023-05-01T03:34:36.865Z,9.02
2023-05-01T03:37:03.395Z,8.99
2023-05-01T03:39:29.836Z,8.93
2023-05-01T03:41:56.236Z,8.97
2023-05-01T03:44:22.803Z,9.05
2023-05-01T03:46:49.253Z,9.07
2023-05-01T03:49:15.800Z,9.16
2023-05-01T03:51:42.212Z,9.19
2023-05-01T03:54:08.768Z,9.25
2023-05-01T03:56:35.215Z,9.31
2023-05-01T03:59:01.760Z,9.45
2023-05-01T04:01:28.258Z,9.52
2023-05-01T04:03:54.855Z,9.60
2023-05-01T04:06:21.143Z,9.65
2023-05-01T04:08:47.586Z,9.71
2023-05-01T04:11:14.165Z,9.78
2023-05-01T04:13:40.598Z,9.87
2023-05-01T04:16:07.063Z,9.98
2023-05-01T04:18:33.530Z,10.09
2023-05-01T04:20:59.868Z,10.16
2023-05-01T04:23:26.390Z,10.24
2023-05-01T04:25:52.783Z,10.44
2023-05-01T04:28:19.245Z,10.61
2023-05-01T04:30:45.956Z,10.88
2023-05-01T04:33:12.408Z,11.33
2023-05-01T04:35:38.865Z,11.78
2023-05-01T04:38:05.377Z,12.11
2023-05-01T04:40:31.945Z,12.45
2023-05-01T04:42:58.478Z,12.63
2023-05-01T04:45:27.448Z,12.85
2023-05-01T04:47:53.991Z,13.23
2023-05-01T04:50:20.719Z,13.58
2023-05-01T04:52:47.204Z,13.90
2023-05-01T04:55:14.016Z,14.35
2023-05-01T04:57:40.445Z,14.35
2023-05-01T05:00:06.933Z,14.86
2023-05-01T05:02:34.393Z,15.56
2023-05-01T05:05:00.900Z,15.84
2023-05-01T05:07:27.296Z,15.91
2023-05-01T05:09:53.800Z,15.79
2023-05-01T05:12:20.184Z,15.23
2023-05-01T05:14:46.584Z,15.38
2023-05-01T05:17:13.009Z,16.14
2023-05-01T05:19:39.425Z,17.10
2023-05-01T05:22:05.865Z,17.59
2023-05-01T05:24:32.312Z,18.18
2023-05-01T05:26:58.741Z,18.70
2023-05-01T05:29:25.136Z,19.05
2023-05-01T05:31:51.619Z,19.03
2023-05-01T05:34:18.061Z,18.79
2023-05-01T05:36:46.629Z,19.02
2023-05-01T05:39:10.992Z,19.40
2023-05-01T05:41:37.378Z,19.27
2023-05-01T05:44:04.056Z,19.80
2023-05-01T05:46:30.649Z,19.54
2023-05-01T05:48:57.034Z,18.23
2023-05-01T05:51:23.474Z,18.17
2023-05-01T05:53:50.311Z,18.18
2023-05-01T05:56:16.792Z,18.43
2023-05-01T05:58:43.175Z,19.11
2023-05-01T06:01:09.641Z,19.49
2023-05-01T06:03:36.532Z,19.64
2023-05-01T06:06:02.934Z,19.65
2023-05-01T06:08:29.330Z,20.21
2023-05-01T06:10:55.704Z,19.89
2023-05-01T06:13:23.129Z,19.92
2023-05-01T06:15:49.633Z,20.15
2023-05-01T06:18:16.313Z,20.36
2023-05-01T06:20:42.660Z,20.78
2023-05-01T06:23:09.057Z,20.91
2023-05-01T06:25:35.761Z,20.93
2023-05-01T06:28:02.310Z,20.46
2023-05-01T06:30:28.760Z,20.13
2023-05-01T06:32:55.263Z,20.46
2023-05-01T06:35:21.846Z,21.17
2023-05-01T06:37:48.176Z,20.90
2023-05-01T06:40:14.637Z,21.75
2023-05-01T06:42:41.235Z,22.07
2023-05-01T06:45:07.882Z,21.66
2023-05-01T06:47:34.314Z,20.61
2023-05-01T06:50:02.826Z,20.89
2023-05-01T06:52:27.139Z,21.51
2023-05-01T06:54:54.044Z,21.57
2023-05-01T06:57:20.577Z,21.76
2023-05-01T06:59:47.047Z,22.17
2023-05-01T07:02:13.511Z,22.73
2023-05-01T07:04:39.957Z,22.74
2023-05-01T07:07:06.575Z,22.52
2023-05-01T07:09:33.028Z,21.73
2023-05-01T07:11:59.517Z,22.02
2023-05-01T07:14:25.937Z,21.94
2023-05-01T07:16:52.422Z,21.94
2023-05-01T07:19:18.786Z,21.84
2023-05-01T07:21:46.919Z,22.48
2023-05-01T07:24:11.620Z,22.88
2023-05-01T07:26:40.454Z,23.04
2023-05-01T07:29:06.867Z,22.73
2023-05-01T07:31:33.437Z,21.86
2023-05-01T07:33:59.789Z,21.92
2023-05-01T07:36:26.222Z,22.09
2023-05-01T07:38:52.635Z,22.04
2023-05-01T07:41:19.071Z,22.22
2023-05-01T07:43:45.572Z,22.65
2023-05-01T07:46:12.012Z,22.73
2023-05-01T07:48:39.174Z,22.79
2023-05-01T07:51:04.788Z,23.15
2023-05-01T07:53:31.569Z,23.62
2023-05-01T07:55:58.002Z,24.00
2023-05-01T07:58:24.411Z,24.50
2023-05-01T08:00:50.781Z,23.89
2023-05-01T08:03:17.483Z,23.80
2023-05-01T08:05:44.072Z,23.96
2023-05-01T08:08:10.458Z,23.97
2023-05-01T08:10:36.905Z,24.58
2023-05-01T08:13:03.312Z,24.73
2023-05-01T08:15:29.689Z,24.63
2023-05-01T08:17:56.149Z,24.96
2023-05-01T08:20:22.591Z,25.77
2023-05-01T08:22:48.903Z,25.39
2023-05-01T08:25:15.281Z,25.83
2023-05-01T08:27:41.707Z,25.62
2023-05-01T08:30:08.160Z,25.71
2023-05-01T08:32:34.597Z,25.74
2023-05-01T08:35:00.929Z,25.81
2023-05-01T08:37:27.389Z,25.52
2023-05-01T08:39:53.822Z,25.79
2023-05-01T08:42:20.162Z,25.69
2023-05-01T08:44:46.564Z,25.28
2023-05-01T08:47:13.046Z,24.60
2023-05-01T08:49:39.400Z,24.10
2023-05-01T08:52:05.850Z,23.91
2023-05-01T08:54:32.233Z,23.72
2023-05-01T08:56:58.660Z,24.50
2023-05-01T08:59:25.218Z,24.94
2023-05-01T09:01:53.834Z,25.60
2023-05-01T09:04:20.444Z,25.36
2023-05-01T09:06:46.853Z,24.79
2023-05-01T09:09:13.210Z,25.28
2023-05-01T09:11:39.580Z,25.68
2023-05-01T09:14:05.954Z,25.78
2023-05-01T09:16:32.336Z,25.44
2023-05-01T09:18:58.757Z,24.84
2023-05-01T09:21:25.201Z,24.71
2023-05-01T09:23:51.637Z,24.98
2023-05-01T09:26:18.187Z,25.21
2023-05-01T09:28:44.617Z,24.25
2023-05-01T09:31:10.993Z,24.49
2023-05-01T09:33:37.574Z,24.99
2023-05-01T09:36:03.993Z,24.56
2023-05-01T09:38:30.353Z,24.29
2023-05-01T09:40:57.063Z,24.16
2023-05-01T09:43:23.192Z,25.22
2023-05-01T09:45:49.656Z,25.51
2023-05-01T09:48:16.131Z,25.73
2023-05-01T09:50:42.595Z,25.64
2023-05-01T09:53:08.970Z,25.54
2023-05-01T09:55:35.492Z,25.30
2023-05-01T09:58:01.912Z,25.35
2023-05-01T10:00:28.324Z,25.64
2023-05-01T10:02:54.780Z,25.98
2023-05-01T10:05:21.265Z,26.20
2023-05-01T10:07:48.470Z,26.55
2023-05-01T10:10:14.903Z,26.66
2023-05-01T10:12:41.227Z,27.01
2023-05-01T10:15:23.280Z,27.27
2023-05-01T10:17:34.360Z,27.54
2023-05-01T10:20:00.700Z,26.68
2023-05-01T10:22:27.156Z,26.21
2023-05-01T10:24:53.526Z,25.72
2023-05-01T10:27:20.071Z,25.95
2023-05-01T10:29:46.502Z,26.13
2023-05-01T10:32:12.851Z,26.39
2023-05-01T10:34:39.258Z,26.35
2023-05-01T10:37:06.268Z,27.17
2023-05-01T10:39:32.778Z,27.86
2023-05-01T10:41:59.164Z,28.21
2023-05-01T10:44:25.447Z,27.30
2023-05-01T10:46:52.316Z,25.01
2023-05-01T10:49:18.682Z,24.09
2023-05-01T10:51:45.158Z,25.16
2023-05-01T10:54:11.561Z,26.37
2023-05-01T10:56:38.315Z,25.90
2023-05-01T10:59:04.770Z,25.75
2023-05-01T11:01:31.211Z,24.16
2023-05-01T11:03:57.547Z,24.69
2023-05-01T11:06:24.410Z,25.28
2023-05-01T11:08:50.723Z,25.04
2023-05-01T11:11:17.113Z,25.38
2023-05-01T11:13:43.538Z,25.43
2023-05-01T11:16:10.222Z,26.33
2023-05-01T11:18:36.596Z,26.84
2023-05-01T11:21:03.031Z,26.82
2023-05-01T11:23:29.417Z,26.04
2023-05-01T11:25:56.235Z,25.77
2023-05-01T11:28:22.655Z,25.43
2023-05-01T11:30:49.039Z,25.18
2023-05-01T11:33:15.499Z,24.90
2023-05-01T11:35:42.114Z,24.70
2023-05-01T11:38:08.518Z,24.82
2023-05-01T11:40:35.200Z,25.00
2023-05-01T11:43:01.369Z,25.41
2023-05-01T11:45:27.795Z,25.23
2023-05-01T11:47:54.382Z,24.02
2023-05-01T11:50:20.622Z,23.35
2023-05-01T11:52:47.032Z,23.56
2023-05-01T11:55:13.444Z,23.11
2023-05-01T11:57:39.799Z,22.65
2023-05-01T12:00:06.199Z,22.18
2023-05-01T12:02:32.724Z,21.97
2023-05-01T12:04:59.273Z,22.62
2023-05-01T12:07:25.432Z,23.00
2023-05-01T12:09:51.795Z,22.32
2023-05-01T12:12:18.193Z,21.74
2023-05-01T12:14:44.582Z,21.72
2023-05-01T12:17:11.072Z,22.42
2023-05-01T12:19:37.440Z,22.03
2023-05-01T12:22:03.817Z,21.61
2023-05-01T12:24:30.186Z,21.62
2023-05-01T12:26:56.561Z,21.38
2023-05-01T12:29:23.005Z,21.49
2023-05-01T12:31:51.870Z,21.94
2023-05-01T12:34:18.185Z,22.05
2023-05-01T12:36:44.734Z,21.96
2023-05-01T12:39:11.123Z,21.79
2023-05-01T12:41:37.497Z,21.50
2023-05-01T12:44:03.966Z,21.32
2023-05-01T12:46:30.448Z,21.29
2023-05-01T12:48:56.798Z,21.36
2023-05-01T12:51:23.189Z,21.58
2023-05-01T12:53:49.553Z,21.43
2023-05-01T12:56:15.930Z,21.11
2023-05-01T12:58:42.338Z,20.87
2023-05-01T13:01:08.773Z,20.83
2023-05-01T13:03:37.165Z,20.96
2023-05-01T13:06:01.717Z,21.07
2023-05-01T13:08:28.011Z,20.93
2023-05-01T13:10:56.869Z,20.90
2023-05-01T13:13:20.796Z,20.87
2023-05-01T13:15:49.533Z,20.33
2023-05-01T13:18:15.906Z,20.50
2023-05-01T13:20:42.357Z,20.38
2023-05-01T13:23:08.917Z,20.34
2023-05-01T13:25:35.315Z,20.38
2023-05-01T13:28:01.693Z,20.00
2023-05-01T13:30:28.139Z,20.20
2023-05-01T13:32:54.599Z,20.50
2023-05-01T13:35:20.912Z,20.52
2023-05-01T13:37:47.388Z,20.48
2023-05-01T13:40:13.801Z,20.54
2023-05-01T13:42:40.221Z,20.21
2023-05-01T13:45:06.655Z,19.90
2023-05-01T13:47:33.190Z,19.79
2023-05-01T13:49:59.822Z,19.81
2023-05-01T13:52:26.279Z,19.90
2023-05-01T13:54:52.723Z,20.05
2023-05-01T13:57:19.141Z,20.15
2023-05-01T13:59:45.646Z,20.11
2023-05-01T14:02:12.308Z,19.87
2023-05-01T14:04:38.699Z,19.81
2023-05-01T14:07:05.058Z,19.87
2023-05-01T14:09:31.451Z,19.83
2023-05-01T14:11:57.952Z,19.68
2023-05-01T14:14:24.363Z,19.66
2023-05-01T14:16:50.821Z,19.70
2023-05-01T14:19:17.237Z,19.68
2023-05-01T14:21:43.588Z,19.62
2023-05-01T14:24:10.576Z,19.46
2023-05-01T14:26:37.293Z,19.67
2023-05-01T14:29:03.393Z,19.88
2023-05-01T14:31:29.793Z,19.65
2023-05-01T14:33:56.382Z,19.48
2023-05-01T14:36:22.794Z,19.33
2023-05-01T14:38:49.192Z,19.49
2023-05-01T14:41:15.592Z,19.56
2023-05-01T14:43:42.104Z,19.64
2023-05-01T14:46:08.607Z,19.72
2023-05-01T14:48:34.958Z,19.82
2023-05-01T14:51:01.385Z,19.84
2023-05-01T14:53:27.913Z,19.58
2023-05-01T14:55:54.380Z,19.71
2023-05-01T14:58:20.798Z,19.87
2023-05-01T15:00:47.326Z,19.81
2023-05-01T15:03:13.825Z,19.78
2023-05-01T15:05:40.090Z,19.59
2023-05-01T15:08:06.512Z,19.52
2023-05-01T15:10:32.883Z,19.49
2023-05-01T15:12:59.303Z,19.48
2023-05-01T15:15:25.903Z,19.48
2023-05-01T15:17:52.300Z,19.46
2023-05-01T15:20:18.678Z,19.48
2023-05-01T15:22:45.169Z,19.55
2023-05-01T15:25:11.638Z,19.60
2023-05-01T15:27:38.048Z,19.51
2023-05-01T15:30:04.475Z,19.64
2023-05-01T15:32:30.961Z,19.66
2023-05-01T15:34:57.485Z,19.55
2023-05-01T15:37:23.699Z,19.49
2023-05-01T15:39:50.110Z,19.37
2023-05-01T15:42:16.552Z,19.43
2023-05-01T15:44:43.001Z,19.49
2023-05-01T15:47:09.474Z,19.47
2023-05-01T15:49:35.745Z,19.44
2023-05-01T15:52:02.189Z,19.32
2023-05-01T15:54:28.604Z,19.36
2023-05-01T15:56:55.027Z,19.34
2023-05-01T15:59:21.580Z,19.41
2023-05-01T16:01:48.050Z,19.39
2023-05-01T16:04:14.371Z,19.28
2023-05-01T16:06:40.904Z,19.25
2023-05-01T16:09:09.874Z,19.17
2023-05-01T16:11:36.239Z,19.14
2023-05-01T16:14:02.691Z,19.07
2023-05-01T16:16:29.114Z,18.93
2023-05-01T16:18:55.933Z,18.93
2023-05-01T16:21:22.394Z,18.88
2023-05-01T16:23:48.798Z,18.83
2023-05-01T16:26:15.264Z,18.82
2023-05-01T16:28:41.708Z,18.77
2023-05-01T16:31:19.534Z,18.68
2023-05-01T16:33:34.534Z,18.66
2023-05-01T16:36:01.051Z,18.62
2023-05-01T16:38:27.420Z,18.59
2023-05-01T16:40:53.832Z,18.55
2023-05-01T16:43:20.271Z,18.53
2023-05-01T16:45:46.682Z,18.54
2023-05-01T16:48:13.153Z,18.52
2023-05-01T16:50:39.566Z,18.50
2023-05-01T16:53:05.948Z,18.50
2023-05-01T16:55:32.371Z,18.47
2023-05-01T16:57:58.837Z,18.44
2023-05-01T17:00:25.258Z,18.42
2023-05-01T17:02:51.822Z,18.38
2023-05-01T17:05:18.141Z,18.33
2023-05-01T17:07:44.529Z,18.28
2023-05-01T17:10:10.955Z,18.23
2023-05-01T17:12:37.398Z,18.17
2023-05-01T17:15:03.816Z,18.10
2023-05-01T17:17:30.276Z,18.01
2023-05-01T17:19:56.959Z,17.95
2023-05-01T17:22:23.321Z,17.90
2023-05-01T17:24:49.774Z,17.84
2023-05-01T17:27:16.262Z,17.82
2023-05-01T17:29:42.812Z,17.79
2023-05-01T17:32:09.282Z,17.75
2023-05-01T17:34:35.626Z,17.70
2023-05-01T17:37:02.018Z,17.67
2023-05-01T17:39:28.495Z,17.68
2023-05-01T17:41:54.898Z,17.62
2023-05-01T17:44:21.379Z,17.57
2023-05-01T17:46:47.790Z,17.50
2023-05-01T17:49:14.259Z,17.48
2023-05-01T17:51:40.980Z,17.47
2023-05-01T17:54:07.376Z,17.43
2023-05-01T17:56:33.844Z,17.40
2023-05-01T17:59:00.291Z,17.35
2023-05-01T18:01:27.036Z,17.30
2023-05-01T18:03:53.604Z,17.26
2023-05-01T18:06:19.868Z,17.23
2023-05-01T18:08:46.211Z,17.19
2023-05-01T18:11:12.639Z,17.14
2023-05-01T18:13:39.034Z,17.12
2023-05-01T18:16:05.528Z,17.07
2023-05-01T18:18:32.088Z,17.05
2023-05-01T18:20:58.691Z,17.01
2023-05-01T18:23:25.138Z,16.93
2023-05-01T18:25:51.682Z,16.86
2023-05-01T18:28:18.791Z,16.76
2023-05-01T18:30:45.289Z,16.70
2023-05-01T18:33:11.841Z,16.66
2023-05-01T18:35:38.337Z,16.62
2023-05-01T18:38:04.741Z,16.57
2023-05-01T18:40:31.210Z,16.50
2023-05-01T18:42:57.771Z,16.46
2023-05-01T18:45:24.200Z,16.39
2023-05-01T18:47:50.843Z,16.08
2023-05-01T18:50:17.168Z,15.86
2023-05-01T18:52:43.556Z,15.80
2023-05-01T18:55:10.001Z,15.70
2023-05-01T18:57:36.401Z,15.60
2023-05-01T19:00:02.930Z,15.46
2023-05-01T19:02:29.407Z,15.40
2023-05-01T19:04:57.863Z,15.30
2023-05-01T19:07:22.281Z,15.17
2023-05-01T19:09:48.767Z,15.02
2023-05-01T19:12:15.168Z,14.93
2023-05-01T19:14:41.551Z,14.81
2023-05-01T19:17:08.092Z,14.68
2023-05-01T19:19:34.827Z,14.61
2023-05-01T19:22:01.339Z,14.57
2023-05-01T19:24:28.065Z,14.53
2023-05-01T19:26:54.442Z,14.51
2023-05-01T19:29:21.209Z,14.53
2023-05-01T19:31:47.716Z,14.42
2023-05-01T19:34:14.071Z,14.39
2023-05-01T19:36:40.518Z,14.33
2023-05-01T19:39:07.116Z,14.30
2023-05-01T19:41:33.539Z,14.30
2023-05-01T19:44:00.136Z,14.29
2023-05-01T19:46:26.588Z,14.29
2023-05-01T19:48:53.068Z,14.34
2023-05-01T19:51:19.439Z,14.31
2023-05-01T19:53:45.867Z,14.28
2023-05-01T19:56:12.265Z,14.25
2023-05-01T19:58:38.633Z,14.25
2023-05-01T20:01:06.244Z,14.22
2023-05-01T20:03:32.735Z,14.21
2023-05-01T20:05:59.232Z,14.19
2023-05-01T20:08:25.558Z,14.20
2023-05-01T20:10:52.054Z,14.16
2023-05-01T20:13:18.482Z,14.13
2023-05-01T20:15:44.951Z,14.10
2023-05-01T20:18:11.426Z,14.04
2023-05-01T20:20:38.059Z,13.99
2023-05-01T20:23:04.497Z,14.00
2023-05-01T20:25:30.924Z,14.00
2023-05-01T20:27:57.364Z,14.00
2023-05-01T20:30:23.755Z,13.97
2023-05-01T20:32:50.177Z,13.97
2023-05-01T20:35:16.652Z,13.94
2023-05-01T20:37:43.120Z,13.92
2023-05-01T20:40:09.509Z,13.87
2023-05-01T20:42:35.996Z,13.83
2023-05-01T20:45:07.955Z,13.74
2023-05-01T20:47:34.351Z,13.64
2023-05-01T20:50:00.889Z,13.58
2023-05-01T20:52:27.125Z,13.54
2023-05-01T20:54:53.619Z,13.50
2023-05-01T20:57:20.028Z,13.48
2023-05-01T20:59:49.479Z,13.42
2023-05-01T21:02:15.924Z,13.39
2023-05-01T21:04:42.308Z,13.34
2023-05-01T21:07:08.745Z,13.25
2023-05-01T21:09:35.115Z,13.20
2023-05-01T21:12:01.522Z,13.17
2023-05-01T21:14:27.918Z,13.11
2023-05-01T21:16:54.363Z,13.03
2023-05-01T21:19:20.811Z,12.98
2023-05-01T21:21:47.186Z,12.96
2023-05-01T21:24:13.555Z,12.92
2023-05-01T21:26:40.060Z,12.87
2023-05-01T21:29:06.493Z,12.85
2023-05-01T21:31:33.038Z,12.82
2023-05-01T21:33:59.430Z,12.80
2023-05-01T21:36:25.809Z,12.77
2023-05-01T21:38:52.228Z,12.75
2023-05-01T21:41:18.679Z,12.73
2023-05-01T21:43:45.129Z,12.70
2023-05-01T21:46:11.773Z,12.64
2023-05-01T21:48:38.195Z,12.62
2023-05-01T21:51:04.822Z,12.62
2023-05-01T21:53:31.217Z,12.59
2023-05-01T21:55:57.728Z,12.60
2023-05-01T21:58:24.093Z,12.58
2023-05-01T22:00:50.575Z,12.55
2023-05-01T22:03:17.100Z,12.55
2023-05-01T22:05:43.354Z,12.50
2023-05-01T22:08:09.838Z,12.50
2023-05-01T22:10:36.345Z,12.49
2023-05-01T22:13:02.724Z,12.47
2023-05-01T22:15:29.227Z,12.45
2023-05-01T22:17:55.669Z,12.43
2023-05-01T22:20:22.161Z,12.42
2023-05-01T22:22:48.581Z,12.36
2023-05-01T22:25:15.013Z,12.28
2023-05-01T22:27:41.685Z,12.24
2023-05-01T22:30:08.157Z,12.18
2023-05-01T22:32:34.633Z,12.16
2023-05-01T22:35:01.037Z,12.17
2023-05-01T22:37:32.352Z,12.25
2023-05-01T22:40:01.215Z,12.33
2023-05-01T22:42:28.777Z,12.40
2023-05-01T22:44:57.281Z,12.45
2023-05-01T22:47:23.722Z,12.45
2023-05-01T22:49:50.177Z,12.50
2023-05-01T22:52:19.856Z,12.50
2023-05-01T22:54:46.352Z,12.53
2023-05-01T22:57:15.182Z,12.55
2023-05-01T22:59:42.023Z,12.56
2023-05-01T23:02:08.802Z,12.52
2023-05-01T23:04:35.901Z,12.51
2023-05-01T23:07:02.307Z,12.51
2023-05-01T23:09:28.749Z,12.57
2023-05-01T23:11:55.234Z,12.56
2023-05-01T23:14:21.745Z,12.50
2023-05-01T23:16:48.171Z,12.45
2023-05-01T23:19:14.605Z,12.42
2023-05-01T23:21:41.137Z,12.40
2023-05-01T23:24:07.659Z,12.42
2023-05-01T23:26:34.072Z,12.36
2023-05-01T23:29:00.608Z,12.33
2023-05-01T23:31:27.120Z,12.29
2023-05-01T23:33:53.822Z,12.27
2023-05-01T23:36:20.386Z,12.23
2023-05-01T23:38:47.659Z,12.21
2023-05-01T23:41:14.235Z,12.15
2023-05-01T23:43:41.045Z,12.10
2023-05-01T23:46:07.764Z,12.06
2023-05-01T23:48:34.633Z,12.01
2023-05-01T23:51:02.452Z,11.98
2023-05-01T23:53:28.833Z,12.02
2023-05-01T23:55:55.284Z,12.03
2023-05-01T23:58:22.868Z,12.01
